createdAt,value
2018-09-22T00:00:49.538Z,0
2018-09-22T00:02:03.953Z,0
2018-09-22T00:02:49.322Z,0
2018-09-22T00:03:49.602Z,0
2018-09-22T00:04:49.628Z,0
2018-09-22T00:05:49.645Z,0
2018-09-22T00:06:49.668Z,0
2018-09-22T00:07:49.428Z,0
2018-09-22T00:08:49.186Z,0
2018-09-22T00:09:49.734Z,0
2018-09-22T00:10:49.489Z,0
2018-09-22T00:11:49.246Z,0
2018-09-22T00:13:04.443Z,0
2018-09-22T00:13:49.822Z,0
2018-09-22T00:14:49.837Z,0
2018-09-22T00:15:49.856Z,0
2018-09-22T00:16:49.923Z,0
2018-09-22T00:18:49.915Z,0
2018-09-22T00:19:49.945Z,0
2018-09-22T00:20:49.699Z,0
2018-09-22T00:22:50.057Z,0
2018-09-22T00:23:50.024Z,0
2018-09-22T00:24:50.042Z,0
2018-09-22T00:25:50.062Z,0
2018-09-22T00:26:50.085Z,0
2018-09-22T00:27:50.121Z,0
2018-09-22T00:29:04.773Z,0
2018-09-22T00:29:50.146Z,0
2018-09-22T00:31:04.556Z,0
2018-09-22T00:31:49.930Z,0
2018-09-22T00:32:50.206Z,0
2018-09-22T00:33:50.225Z,0
2018-09-22T00:34:50.250Z,0
2018-09-22T00:35:50.278Z,0
2018-09-22T00:36:50.033Z,0
2018-09-22T00:37:49.787Z,0
2018-09-22T00:38:50.333Z,0
2018-09-22T00:40:05.007Z,0
2018-09-22T00:40:50.373Z,0
2018-09-22T00:41:50.183Z,0
2018-09-22T00:42:50.418Z,0
2018-09-22T00:43:50.434Z,0
2018-09-22T00:44:50.456Z,0
2018-09-22T00:45:50.219Z,0
2018-09-22T00:47:05.152Z,0
2018-09-22T00:47:50.518Z,0
2018-09-22T00:49:50.565Z,0
2018-09-22T00:51:04.975Z,0
2018-09-22T00:51:50.599Z,0
2018-09-22T00:52:50.514Z,0
2018-09-22T00:53:50.387Z,0
2018-09-22T00:54:50.408Z,0
2018-09-22T00:55:50.682Z,0
2018-09-22T00:56:50.753Z,0
2018-09-22T00:57:50.733Z,0
2018-09-22T00:58:50.759Z,0
2018-09-22T01:00:50.793Z,0
2018-09-22T01:01:50.860Z,0
2018-09-22T01:04:05.546Z,0
2018-09-22T01:06:05.285Z,0
2018-09-22T01:06:50.395Z,0
2018-09-22T01:07:50.417Z,0
2018-09-22T01:08:51.005Z,0
2018-09-22T01:09:50.712Z,0
2018-09-22T01:10:50.995Z,0
2018-09-22T01:11:51.017Z,0
2018-09-22T01:12:50.780Z,0
2018-09-22T01:13:51.063Z,0
2018-09-22T01:15:05.471Z,0
2018-09-22T01:16:05.782Z,0
2018-09-22T01:16:51.127Z,0
2018-09-22T01:17:51.154Z,0
2018-09-22T01:19:05.815Z,0
2018-09-22T01:20:05.576Z,0
2018-09-22T01:20:50.681Z,0
2018-09-22T01:21:51.230Z,0
2018-09-22T01:22:50.988Z,0
2018-09-22T01:23:51.007Z,0
2018-09-22T01:24:51.288Z,0
2018-09-22T01:26:05.440Z,0
2018-09-22T01:26:51.327Z,0
2018-09-22T01:27:51.348Z,0
2018-09-22T01:28:51.369Z,0
2018-09-22T01:29:51.132Z,0
2018-09-22T01:30:51.409Z,0
2018-09-22T01:31:51.171Z,0
2018-09-22T01:33:05.843Z,0
2018-09-22T01:34:05.864Z,0
2018-09-22T01:34:51.494Z,0
2018-09-22T01:35:51.257Z,0
2018-09-22T01:36:51.537Z,0
2018-09-22T01:38:51.581Z,0
2018-09-22T01:39:51.336Z,0
2018-09-22T01:40:51.095Z,0
2018-09-22T01:41:51.645Z,0
2018-09-22T01:42:51.660Z,0
2018-09-22T01:43:51.418Z,0
2018-09-22T01:44:51.746Z,0
2018-09-22T01:45:51.724Z,0
2018-09-22T01:47:06.395Z,0
2018-09-22T01:47:51.764Z,0
2018-09-22T01:49:06.443Z,0
2018-09-22T01:50:06.459Z,0
2018-09-22T01:50:51.819Z,0
2018-09-22T01:51:51.583Z,0
2018-09-22T01:52:51.869Z,0
2018-09-22T01:53:51.885Z,0
2018-09-22T01:54:51.913Z,0
2018-09-22T01:55:51.938Z,0
2018-09-22T01:56:51.695Z,0
2018-09-22T01:57:51.969Z,0
2018-09-22T01:58:51.992Z,0
2018-09-22T02:00:51.770Z,0
2018-09-22T02:01:52.052Z,0
2018-09-22T02:02:51.550Z,0
2018-09-22T02:03:52.095Z,0
2018-09-22T02:05:06.500Z,0
2018-09-22T02:06:06.522Z,0
2018-09-22T02:06:51.890Z,0
2018-09-22T02:07:51.917Z,0
2018-09-22T02:08:52.198Z,0
2018-09-22T02:09:52.266Z,0
2018-09-22T02:10:52.324Z,0
2018-09-22T02:11:52.261Z,0
2018-09-22T02:12:52.281Z,0
2018-09-22T02:13:52.304Z,0
2018-09-22T02:16:06.995Z,0
2018-09-22T02:16:52.359Z,0
2018-09-22T02:17:52.382Z,0
2018-09-22T02:18:52.400Z,0
2018-09-22T02:20:07.078Z,0
2018-09-22T02:22:06.851Z,0
2018-09-22T02:22:52.486Z,0
2018-09-22T02:23:52.246Z,0
2018-09-22T02:24:52.526Z,0
2018-09-22T02:25:52.549Z,0
2018-09-22T02:26:52.307Z,0
2018-09-22T02:27:52.592Z,0
2018-09-22T02:28:52.609Z,0
2018-09-22T02:30:07.282Z,0
2018-09-22T02:30:52.664Z,0
2018-09-22T02:32:07.327Z,0
2018-09-22T02:33:07.339Z,0
2018-09-22T02:33:52.449Z,0
2018-09-22T02:34:52.468Z,0
2018-09-22T02:35:52.767Z,0
2018-09-22T02:37:07.419Z,0
2018-09-22T02:38:07.179Z,0
2018-09-22T02:38:52.812Z,0
2018-09-22T02:39:52.583Z,0
2018-09-22T02:41:07.244Z,0
2018-09-22T02:42:07.001Z,0
2018-09-22T02:42:52.922Z,0
2018-09-22T02:43:52.913Z,0
2018-09-22T02:44:52.940Z,0
2018-09-22T02:45:52.955Z,0
2018-09-22T02:46:52.816Z,0
2018-09-22T02:48:07.646Z,0
2018-09-22T02:48:52.762Z,0
2018-09-22T02:49:53.038Z,0
2018-09-22T02:50:53.075Z,0
2018-09-22T02:52:07.727Z,0
2018-09-22T02:52:53.198Z,0
2018-09-22T02:54:07.771Z,0
2018-09-22T02:54:53.148Z,0
2018-09-22T02:55:53.164Z,0
2018-09-22T02:56:52.655Z,0
2018-09-22T02:57:52.938Z,0
2018-09-22T02:58:53.230Z,0
2018-09-22T02:59:52.979Z,0
2018-09-22T03:00:53.261Z,0
2018-09-22T03:01:53.019Z,0
2018-09-22T03:02:53.307Z,0
2018-09-22T03:03:53.318Z,0
2018-09-22T03:04:53.090Z,0
2018-09-22T03:05:52.941Z,0
2018-09-22T03:06:53.915Z,0
2018-09-22T03:07:53.491Z,0
2018-09-22T03:09:53.498Z,0
2018-09-22T03:10:53.513Z,0
2018-09-22T03:11:53.225Z,0
2018-09-22T03:13:07.922Z,0
2018-09-22T03:14:53.284Z,0
2018-09-22T03:15:53.572Z,0
2018-09-22T03:16:53.330Z,0
2018-09-22T03:17:53.608Z,0
2018-09-22T03:19:08.278Z,0
2018-09-22T03:19:53.661Z,0
2018-09-22T03:21:08.319Z,0
2018-09-22T03:21:53.691Z,0
2018-09-22T03:22:53.719Z,0
2018-09-22T03:24:08.426Z,0
2018-09-22T03:24:53.760Z,0
2018-09-22T03:26:08.431Z,0
2018-09-22T03:26:53.272Z,0
2018-09-22T03:27:53.814Z,0
2018-09-22T03:28:53.570Z,0
2018-09-22T03:29:53.895Z,0
2018-09-22T03:30:53.617Z,0
2018-09-22T03:31:53.892Z,0
2018-09-22T03:33:53.935Z,0
2018-09-22T03:34:53.966Z,0
2018-09-22T03:35:53.971Z,0
2018-09-22T03:37:08.643Z,0
2018-09-22T03:37:54.019Z,0
2018-09-22T03:38:54.038Z,0
2018-09-22T03:39:54.072Z,0
2018-09-22T03:41:54.100Z,0
2018-09-22T03:42:54.119Z,0
2018-09-22T03:43:54.138Z,0
2018-09-22T03:44:54.172Z,0
2018-09-22T03:45:53.943Z,0
2018-09-22T03:46:54.198Z,0
2018-09-22T03:47:54.218Z,0
2018-09-22T03:48:54.237Z,0
2018-09-22T03:49:54.255Z,0
2018-09-22T03:50:54.285Z,0
2018-09-22T03:51:54.314Z,0
2018-09-22T03:52:54.334Z,0
2018-09-22T03:53:54.335Z,0
2018-09-22T03:54:54.358Z,0
2018-09-22T03:55:54.386Z,0
2018-09-22T03:57:08.791Z,0
2018-09-22T03:57:54.427Z,0
2018-09-22T03:58:54.442Z,0
2018-09-22T03:59:54.465Z,0
2018-09-22T04:00:54.483Z,0
2018-09-22T04:01:54.254Z,0
2018-09-22T04:03:54.543Z,0
2018-09-22T04:04:54.610Z,0
2018-09-22T04:05:54.578Z,0
2018-09-22T04:06:54.609Z,0
2018-09-22T04:08:54.641Z,0
2018-09-22T04:09:54.666Z,0
2018-09-22T04:10:54.425Z,0
2018-09-22T04:11:54.705Z,0
2018-09-22T04:13:09.371Z,0
2018-09-22T04:14:08.872Z,0
2018-09-22T04:14:54.776Z,0
2018-09-22T04:16:09.441Z,4
2018-09-22T04:16:54.544Z,4
2018-09-22T04:17:54.585Z,0
2018-09-22T04:18:54.585Z,4
2018-09-22T04:20:09.518Z,4
2018-09-22T04:21:09.569Z,8
2018-09-22T04:21:54.383Z,4
2018-09-22T04:23:54.942Z,8
2018-09-22T04:24:54.973Z,8
2018-09-22T04:25:54.464Z,12
2018-09-22T04:27:09.396Z,16
2018-09-22T04:27:55.046Z,20
2018-09-22T04:29:09.434Z,20
2018-09-22T04:29:55.068Z,24
2018-09-22T04:31:09.472Z,32
2018-09-22T04:31:55.106Z,36
2018-09-22T04:32:55.131Z,44
2018-09-22T04:33:55.148Z,52
2018-09-22T04:34:54.904Z,60
2018-09-22T04:36:09.840Z,72
2018-09-22T04:36:55.205Z,76
2018-09-22T04:38:55.244Z,100
2018-09-22T04:39:55.269Z,112
2018-09-22T04:40:55.287Z,128
2018-09-22T04:42:09.955Z,148
2018-09-22T04:42:55.329Z,164
2018-09-22T04:44:09.771Z,196
2018-09-22T04:44:55.108Z,212
2018-09-22T04:45:55.392Z,244
2018-09-22T04:47:55.173Z,308
2018-09-22T04:48:55.187Z,336
2018-09-22T04:49:55.206Z,372
2018-09-22T04:50:55.226Z,412
2018-09-22T04:51:55.511Z,456
2018-09-22T04:52:55.533Z,500
2018-09-22T04:53:55.559Z,540
2018-09-22T04:54:55.044Z,548
2018-09-22T04:55:55.331Z,508
2018-09-22T04:56:55.614Z,472
2018-09-22T04:58:10.017Z,492
2018-09-22T04:58:55.649Z,564
2018-09-22T04:59:55.145Z,656
2018-09-22T05:00:55.683Z,736
2018-09-22T05:01:55.712Z,800
2018-09-22T05:02:55.732Z,872
2018-09-22T05:03:55.487Z,896
2018-09-22T05:04:55.505Z,860
2018-09-22T05:05:55.530Z,820
2018-09-22T05:06:55.550Z,780
2018-09-22T05:07:55.832Z,676
2018-09-22T05:08:55.849Z,568
2018-09-22T05:10:10.520Z,468
2018-09-22T05:10:55.891Z,416
2018-09-22T05:11:55.911Z,352
2018-09-22T05:13:10.579Z,344
2018-09-22T05:14:10.602Z,344
2018-09-22T05:14:55.705Z,352
2018-09-22T05:16:10.381Z,320
2018-09-22T05:16:56.091Z,316
2018-09-22T05:18:10.725Z,304
2018-09-22T05:18:55.790Z,276
2018-09-22T05:19:56.078Z,260
2018-09-22T05:20:56.094Z,348
2018-09-22T05:21:55.851Z,368
2018-09-22T05:23:56.155Z,372
2018-09-22T05:24:56.577Z,384
2018-09-22T05:25:56.195Z,388
2018-09-22T05:26:56.209Z,392
2018-09-22T05:27:56.229Z,380
2018-09-22T05:28:55.992Z,372
2018-09-22T05:29:56.269Z,400
2018-09-22T05:30:56.302Z,380
2018-09-22T05:32:10.961Z,376
2018-09-22T05:32:56.339Z,440
2018-09-22T05:33:56.354Z,476
2018-09-22T05:34:56.115Z,588
2018-09-22T05:35:55.874Z,612
2018-09-22T05:36:56.170Z,636
2018-09-22T05:38:55.930Z,656
2018-09-22T05:39:56.480Z,652
2018-09-22T05:40:56.495Z,604
2018-09-22T05:41:56.791Z,600
2018-09-22T05:42:56.273Z,644
2018-09-22T05:44:11.208Z,592
2018-09-22T05:45:11.227Z,716
2018-09-22T05:46:56.355Z,1000
2018-09-22T05:48:11.285Z,836
2018-09-22T05:48:56.393Z,884
2018-09-22T05:49:56.152Z,812
2018-09-22T05:50:56.702Z,708
2018-09-22T05:51:56.718Z,604
2018-09-22T05:52:56.744Z,616
2018-09-22T05:53:56.760Z,556
2018-09-22T05:54:56.517Z,500
2018-09-22T05:56:11.450Z,488
2018-09-22T05:56:56.858Z,480
2018-09-22T05:57:56.926Z,520
2018-09-22T05:58:56.336Z,696
2018-09-22T05:59:56.353Z,764
2018-09-22T06:01:11.285Z,648
2018-09-22T06:01:56.663Z,712
2018-09-22T06:03:11.587Z,624
2018-09-22T06:04:11.616Z,712
2018-09-22T06:04:56.980Z,892
2018-09-22T06:05:56.737Z,1224
2018-09-22T06:07:56.514Z,1544
2018-09-22T06:09:11.715Z,2448
2018-09-22T06:09:57.076Z,2140
2018-09-22T06:10:57.101Z,1648
2018-09-22T06:11:56.860Z,1384
2018-09-22T06:12:57.140Z,1432
2018-09-22T06:13:56.894Z,1324
2018-09-22T06:14:57.177Z,1216
2018-09-22T06:15:57.198Z,992
2018-09-22T06:17:56.726Z,940
2018-09-22T06:19:11.655Z,1016
2018-09-22T06:19:57.027Z,1056
2018-09-22T06:20:57.310Z,1068
2018-09-22T06:21:57.303Z,1056
2018-09-22T06:22:57.394Z,996
2018-09-22T06:23:57.339Z,948
2018-09-22T06:24:57.344Z,996
2018-09-22T06:25:57.360Z,964
2018-09-22T06:26:57.388Z,1000
2018-09-22T06:27:57.500Z,1040
2018-09-22T06:28:57.978Z,1004
2018-09-22T06:29:57.187Z,1004
2018-09-22T06:30:57.464Z,1016
2018-09-22T06:31:57.497Z,1036
2018-09-22T06:32:57.247Z,1320
2018-09-22T06:33:57.522Z,1832
2018-09-22T06:34:57.290Z,2000
2018-09-22T06:35:57.563Z,1872
2018-09-22T06:36:57.327Z,1632
2018-09-22T06:37:57.609Z,1692
2018-09-22T06:38:57.471Z,2280
2018-09-22T06:39:57.654Z,2436
2018-09-22T06:40:57.687Z,2164
2018-09-22T06:41:57.436Z,1784
2018-09-22T06:42:57.454Z,1748
2018-09-22T06:43:57.220Z,1812
2018-09-22T06:44:57.749Z,1704
2018-09-22T06:46:12.566Z,1924
2018-09-22T06:46:57.535Z,2152
2018-09-22T06:47:57.296Z,1928
2018-09-22T06:48:57.834Z,1848
2018-09-22T06:49:57.857Z,1512
2018-09-22T06:51:12.533Z,1348
2018-09-22T06:51:57.632Z,1308
2018-09-22T06:52:57.924Z,1336
2018-09-22T06:54:12.592Z,1600
2018-09-22T06:55:12.754Z,2280
2018-09-22T06:55:57.979Z,2716
2018-09-22T06:57:12.394Z,3208
2018-09-22T06:57:58.019Z,3884
2018-09-22T06:58:58.037Z,4328
2018-09-22T06:59:58.064Z,4096
2018-09-22T07:01:12.734Z,4264
2018-09-22T07:01:58.099Z,4288
2018-09-22T07:02:57.861Z,3912
2018-09-22T07:03:57.881Z,4640
2018-09-22T07:04:58.156Z,5660
2018-09-22T07:05:58.179Z,6236
2018-09-22T07:07:12.605Z,6300
2018-09-22T07:08:12.882Z,5872
2018-09-22T07:08:57.982Z,5632
2018-09-22T07:09:58.000Z,4868
2018-09-22T07:10:58.027Z,7220
2018-09-22T07:11:58.046Z,9508
2018-09-22T07:12:58.331Z,11380
2018-09-22T07:16:58.465Z,7504
2018-09-22T07:17:58.530Z,7128
2018-09-22T07:19:58.470Z,5976
2018-09-22T07:20:58.491Z,5492
2018-09-22T07:21:58.517Z,5120
2018-09-22T07:23:13.194Z,5800
2018-09-22T07:23:58.297Z,4984
2018-09-22T07:25:13.039Z,5956
2018-09-22T07:25:58.606Z,8712
2018-09-22T07:26:58.629Z,11040
2018-09-22T07:27:58.382Z,13484
2018-09-22T07:28:58.508Z,12872
2018-09-22T07:29:58.429Z,21216
2018-09-22T07:30:59.016Z,40384
2018-09-22T07:31:58.213Z,16256
2018-09-22T07:32:58.752Z,11052
2018-09-22T07:34:13.175Z,73120
2018-09-22T07:34:58.537Z,18592
2018-09-22T07:35:58.815Z,18336
2018-09-22T07:36:58.885Z,15212
2018-09-22T07:39:13.549Z,14276
2018-09-22T07:39:58.911Z,12756
2018-09-22T07:40:58.926Z,12612
2018-09-22T07:41:58.952Z,13260
2018-09-22T07:42:58.972Z,14548
2018-09-22T07:43:58.997Z,19296
2018-09-22T07:44:58.758Z,33440
2018-09-22T07:45:59.096Z,74112
2018-09-22T07:46:59.065Z,57376
2018-09-22T07:47:59.096Z,13548
2018-09-22T07:49:13.797Z,11160
2018-09-22T07:49:58.872Z,11100
2018-09-22T07:50:58.901Z,14340
2018-09-22T07:51:59.175Z,65664
2018-09-22T07:53:13.863Z,50656
2018-09-22T07:54:13.887Z,13880
2018-09-22T07:54:58.988Z,8284
2018-09-22T07:55:59.045Z,7764
2018-09-22T07:56:59.310Z,10392
2018-09-22T07:58:13.982Z,12328
2018-09-22T07:58:59.095Z,48000
2018-09-22T07:59:59.108Z,17600
2018-09-22T08:00:59.141Z,10316
2018-09-22T08:02:14.072Z,9984
2018-09-22T08:02:59.186Z,9448
2018-09-22T08:04:14.114Z,9056
2018-09-22T08:04:59.482Z,7632
2018-09-22T08:06:14.169Z,6520
2018-09-22T08:06:59.272Z,6364
2018-09-22T08:07:59.550Z,6624
2018-09-22T08:09:59.339Z,6428
2018-09-22T08:10:59.361Z,4084
2018-09-22T08:11:59.647Z,3144
2018-09-22T08:12:59.409Z,3480
2018-09-22T08:13:59.693Z,4300
2018-09-22T08:14:59.452Z,3696
2018-09-22T08:15:59.786Z,4368
2018-09-22T08:16:59.503Z,8448
2018-09-22T08:17:59.787Z,6392
2018-09-22T08:19:14.462Z,6896
2018-09-22T08:19:59.310Z,7780
2018-09-22T08:20:59.846Z,9084
2018-09-22T08:21:59.867Z,10268
2018-09-22T08:22:59.892Z,7908
2018-09-22T08:23:59.919Z,6216
2018-09-22T08:25:14.640Z,5144
2018-09-22T08:26:14.622Z,5184
2018-09-22T08:27:00.000Z,5684
2018-09-22T08:28:00.011Z,6376
2018-09-22T08:29:00.025Z,6444
2018-09-22T08:30:00.055Z,9312
2018-09-22T08:30:59.563Z,8084
2018-09-22T08:32:00.130Z,7580
2018-09-22T08:33:00.131Z,7988
2018-09-22T08:34:00.148Z,9024
2018-09-22T08:35:14.824Z,10060
2018-09-22T08:36:15.183Z,10488
2018-09-22T08:37:00.714Z,9480
2018-09-22T08:38:00.233Z,7588
2018-09-22T08:39:00.255Z,6344
2018-09-22T08:40:00.289Z,5796
2018-09-22T08:41:00.040Z,7272
2018-09-22T08:42:14.984Z,6600
2018-09-22T08:43:00.346Z,5796
2018-09-22T08:44:00.418Z,6256
2018-09-22T08:45:00.455Z,7096
2018-09-22T08:46:15.075Z,7932
2018-09-22T08:47:00.431Z,9368
2018-09-22T08:48:00.500Z,10280
2018-09-22T08:49:00.486Z,28352
2018-09-22T08:50:00.757Z,30304
2018-09-22T08:51:00.689Z,10824
2018-09-22T08:52:00.290Z,9688
2018-09-22T08:53:00.576Z,10776
2018-09-22T08:54:00.338Z,12912
2018-09-22T08:55:00.099Z,19392
2018-09-22T08:56:00.649Z,9476
2018-09-22T08:57:00.663Z,10716
2018-09-22T08:58:15.344Z,24256
2018-09-22T08:59:00.706Z,7860
2018-09-22T09:00:00.478Z,8340
2018-09-22T09:01:00.497Z,17472
2018-09-22T09:03:00.806Z,13344
2018-09-22T09:04:00.825Z,12632
2018-09-22T09:06:01.311Z,10316
2018-09-22T09:07:15.551Z,9696
2018-09-22T09:08:00.402Z,20320
2018-09-22T09:09:00.937Z,11944
2018-09-22T09:10:00.964Z,9304
2018-09-22T09:11:00.988Z,7744
2018-09-22T09:12:00.496Z,8664
2018-09-22T09:13:00.259Z,9636
2018-09-22T09:14:15.637Z,10376
2018-09-22T09:15:15.742Z,17664
2018-09-22T09:16:15.765Z,10132
2018-09-22T09:17:01.254Z,9876
2018-09-22T09:18:00.897Z,8524
2018-09-22T09:20:00.948Z,6036
2018-09-22T09:21:01.229Z,5448
2018-09-22T09:22:01.245Z,7568
2018-09-22T09:23:01.011Z,8764
2018-09-22T09:24:01.293Z,9364
2018-09-22T09:25:01.330Z,9504
2018-09-22T09:26:01.082Z,8060
2018-09-22T09:27:01.100Z,8516
2018-09-22T09:28:01.385Z,8056
2018-09-22T09:29:16.070Z,6688
2018-09-22T09:30:01.192Z,5700
2018-09-22T09:31:01.559Z,5016
2018-09-22T09:32:16.150Z,4264
2018-09-22T09:34:01.269Z,4072
2018-09-22T09:35:01.295Z,4844
2018-09-22T09:36:16.240Z,6396
2018-09-22T09:37:01.607Z,7024
2018-09-22T09:38:01.361Z,8100
2018-09-22T09:39:16.041Z,8360
2018-09-22T09:40:01.670Z,9084
2018-09-22T09:41:01.687Z,9144
2018-09-22T09:42:01.709Z,9236
2018-09-22T09:44:01.501Z,9764
2018-09-22T09:45:01.524Z,11092
2018-09-22T09:46:01.797Z,10380
2018-09-22T09:47:01.834Z,10860
2018-09-22T09:49:01.616Z,11708
2018-09-22T09:50:01.903Z,11236
2018-09-22T09:51:01.918Z,9840
2018-09-22T09:52:16.603Z,9440
2018-09-22T09:53:01.960Z,10908
2018-09-22T09:54:16.647Z,9516
2018-09-22T09:55:02.513Z,9120
2018-09-22T09:56:01.829Z,7548
2018-09-22T09:57:02.060Z,6960
2018-09-22T09:58:01.825Z,6792
2018-09-22T09:59:02.104Z,6384
2018-09-22T10:00:01.613Z,5692
2018-09-22T10:01:16.861Z,5176
2018-09-22T10:02:01.919Z,4644
2018-09-22T10:03:02.201Z,4484
2018-09-22T10:04:02.219Z,5448
2018-09-22T10:05:01.984Z,6860
2018-09-22T10:06:02.286Z,7144
2018-09-22T10:08:01.797Z,7668
2018-09-22T10:09:02.081Z,8180
2018-09-22T10:12:02.516Z,9556
2018-09-22T10:13:02.430Z,9536
2018-09-22T10:15:02.215Z,11572
2018-09-22T10:16:02.499Z,21600
2018-09-22T10:17:17.183Z,20736
2018-09-22T10:18:02.547Z,20832
2018-09-22T10:19:02.317Z,12272
2018-09-22T10:20:17.316Z,10720
2018-09-22T10:21:02.619Z,9336
2018-09-22T10:23:17.327Z,7500
2018-09-22T10:24:02.689Z,7016
2018-09-22T10:25:02.713Z,7008
2018-09-22T10:26:17.393Z,6604
2018-09-22T10:27:02.766Z,6816
2018-09-22T10:29:02.788Z,7148
2018-09-22T10:30:02.931Z,7184
2018-09-22T10:31:02.854Z,6808
2018-09-22T10:33:17.565Z,6212
2018-09-22T10:34:02.688Z,5940
2018-09-22T10:35:02.942Z,5848
2018-09-22T10:36:02.982Z,6128
2018-09-22T10:38:02.766Z,6824
2018-09-22T10:39:03.046Z,6964
2018-09-22T10:40:03.068Z,8952
2018-09-22T10:41:02.831Z,11516
2018-09-22T10:42:17.917Z,10704
2018-09-22T10:43:03.243Z,10712
2018-09-22T10:44:03.156Z,9528
2018-09-22T10:45:03.184Z,8788
2018-09-22T10:46:03.204Z,8580
2018-09-22T10:47:17.894Z,8136
2018-09-22T10:48:03.251Z,7764
2018-09-22T10:49:17.680Z,7248
2018-09-22T10:50:03.037Z,7108
2018-09-22T10:51:03.321Z,7124
2018-09-22T10:52:03.344Z,7596
2018-09-22T10:53:03.496Z,8008
2018-09-22T10:54:03.136Z,8276
2018-09-22T10:56:03.188Z,8836
2018-09-22T10:57:03.460Z,8400
2018-09-22T10:58:18.151Z,7488
2018-09-22T10:59:03.247Z,6772
2018-09-22T11:00:03.272Z,5964
2018-09-22T11:01:03.298Z,5584
2018-09-22T11:02:03.586Z,5644
2018-09-22T11:03:03.343Z,5612
2018-09-22T11:04:18.287Z,5952
2018-09-22T11:06:03.673Z,7392
2018-09-22T11:07:03.701Z,8112
2018-09-22T11:08:03.466Z,8912
2018-09-22T11:09:03.587Z,9384
2018-09-22T11:10:03.765Z,9628
2018-09-22T11:11:03.789Z,9628
2018-09-22T11:12:03.816Z,9596
2018-09-22T11:14:03.604Z,8348
2018-09-22T11:15:03.887Z,7232
2018-09-22T11:16:18.572Z,7228
2018-09-22T11:17:03.933Z,7352
2018-09-22T11:18:03.697Z,7776
2018-09-22T11:19:18.640Z,8328
2018-09-22T11:20:03.741Z,8576
2018-09-22T11:21:18.429Z,8680
2018-09-22T11:22:04.064Z,8932
2018-09-22T11:23:03.821Z,9216
2018-09-22T11:24:03.843Z,10240
2018-09-22T11:25:03.861Z,9516
2018-09-22T11:26:03.886Z,9456
2018-09-22T11:27:04.243Z,8820
2018-09-22T11:28:03.929Z,6712
2018-09-22T11:29:03.957Z,7768
2018-09-22T11:30:04.241Z,7576
2018-09-22T11:31:04.006Z,7760
2018-09-22T11:32:04.281Z,7564
2018-09-22T11:33:04.062Z,8004
2018-09-22T11:34:04.335Z,7988
2018-09-22T11:35:04.360Z,7680
2018-09-22T11:36:18.782Z,6376
2018-09-22T11:37:04.143Z,6768
2018-09-22T11:38:19.131Z,7832
2018-09-22T11:39:18.850Z,8672
2018-09-22T11:40:04.476Z,9040
2018-09-22T11:41:04.238Z,9196
2018-09-22T11:42:04.523Z,7920
2018-09-22T11:43:04.039Z,7320
2018-09-22T11:44:19.227Z,7520
2018-09-22T11:45:04.072Z,7076
2018-09-22T11:46:19.377Z,6364
2018-09-22T11:47:03.863Z,6188
2018-09-22T11:49:04.432Z,5464
2018-09-22T11:50:04.706Z,6596
2018-09-22T11:51:04.212Z,7176
2018-09-22T11:52:19.423Z,8892
2018-09-22T11:53:19.441Z,8700
2018-09-22T11:54:19.462Z,7536
2018-09-22T11:55:04.828Z,8388
2018-09-22T11:56:04.849Z,11228
2018-09-22T11:57:04.895Z,10684
2018-09-22T11:59:04.922Z,8840
2018-09-22T12:00:04.695Z,9104
2018-09-22T12:01:04.988Z,8584
2018-09-22T12:02:19.835Z,9420
2018-09-22T12:03:04.501Z,9660
2018-09-22T12:04:04.780Z,8596
2018-09-22T12:05:04.545Z,7900
2018-09-22T12:06:05.468Z,6280
2018-09-22T12:07:04.593Z,6928
2018-09-22T12:08:19.791Z,6984
2018-09-22T12:09:05.158Z,7132
2018-09-22T12:10:19.839Z,6760
2018-09-22T12:11:04.947Z,7444
2018-09-22T12:12:05.229Z,8552
2018-09-22T12:13:05.256Z,8640
2018-09-22T12:14:05.215Z,8176
2018-09-22T12:15:19.965Z,7656
2018-09-22T12:16:05.066Z,7432
2018-09-22T12:18:05.369Z,7200
2018-09-22T12:19:05.396Z,7244
2018-09-22T12:20:05.166Z,6896
2018-09-22T12:21:05.441Z,6112
2018-09-22T12:22:05.464Z,5564
2018-09-22T12:23:05.491Z,6128
2018-09-22T12:24:20.173Z,6100
2018-09-22T12:25:20.197Z,6696
2018-09-22T12:26:05.559Z,6856
2018-09-22T12:27:05.325Z,7208
2018-09-22T12:28:05.093Z,7112
2018-09-22T12:30:05.396Z,6568
2018-09-22T12:31:05.425Z,6404
2018-09-22T12:32:20.523Z,6364
2018-09-22T12:33:05.723Z,6492
2018-09-22T12:34:20.408Z,6684
2018-09-22T12:35:05.775Z,6896
2018-09-22T12:36:05.796Z,7196
2018-09-22T12:37:05.562Z,7484
2018-09-22T12:38:05.840Z,8696
2018-09-22T12:39:20.271Z,7912
2018-09-22T12:40:20.296Z,10092
2018-09-22T12:41:05.958Z,8208
2018-09-22T12:42:05.936Z,9136
2018-09-22T12:43:05.967Z,9080
2018-09-22T12:44:05.730Z,8808
2018-09-22T12:46:06.464Z,8688
2018-09-22T12:47:06.078Z,8748
2018-09-22T12:48:06.078Z,6836
2018-09-22T12:49:06.107Z,6620
2018-09-22T12:50:06.132Z,6676
2018-09-22T12:51:06.244Z,8200
2018-09-22T12:52:06.177Z,8368
2018-09-22T12:53:20.607Z,7484
2018-09-22T12:54:05.711Z,6592
2018-09-22T12:55:06.251Z,6740
2018-09-22T12:56:05.858Z,6748
2018-09-22T12:57:20.959Z,6700
2018-09-22T12:58:06.320Z,7052
2018-09-22T13:00:06.132Z,9080
2018-09-22T13:01:06.187Z,7788
2018-09-22T13:02:05.898Z,6012
2018-09-22T13:03:06.186Z,5676
2018-09-22T13:04:06.464Z,5244
2018-09-22T13:05:06.234Z,5408
2018-09-22T13:06:06.296Z,4940
2018-09-22T13:07:06.531Z,4496
2018-09-22T13:08:06.037Z,4544
2018-09-22T13:09:06.578Z,5132
2018-09-22T13:10:21.271Z,6032
2018-09-22T13:11:21.289Z,6300
2018-09-22T13:12:06.396Z,6164
2018-09-22T13:13:06.416Z,5588
2018-09-22T13:14:06.713Z,5472
2018-09-22T13:15:06.724Z,5612
2018-09-22T13:16:06.746Z,6576
2018-09-22T13:17:06.510Z,6088
2018-09-22T13:18:06.530Z,5536
2018-09-22T13:19:06.295Z,5424
2018-09-22T13:20:06.430Z,5508
2018-09-22T13:21:06.345Z,5592
2018-09-22T13:22:06.369Z,5304
2018-09-22T13:23:06.960Z,5216
2018-09-22T13:24:06.988Z,5176
2018-09-22T13:25:06.696Z,5180
2018-09-22T13:26:06.723Z,5168
2018-09-22T13:27:36.069Z,5120
2018-09-22T13:28:06.771Z,5020
2018-09-22T13:29:21.455Z,4504
2018-09-22T13:32:06.860Z,4432
2018-09-22T13:33:07.151Z,4660
2018-09-22T13:34:07.168Z,4736
2018-09-22T13:35:21.593Z,4608
2018-09-22T13:37:07.044Z,4592
2018-09-22T13:38:07.007Z,5060
2018-09-22T13:39:07.289Z,5324
2018-09-22T13:40:07.305Z,5552
2018-09-22T13:41:07.331Z,5764
2018-09-22T13:42:07.358Z,6104
2018-09-22T13:43:22.042Z,6536
2018-09-22T13:44:07.409Z,6548
2018-09-22T13:45:07.165Z,6764
2018-09-22T13:46:07.454Z,6756
2018-09-22T13:47:07.469Z,7048
2018-09-22T13:48:21.898Z,7276
2018-09-22T13:49:07.263Z,7076
2018-09-22T13:50:07.039Z,6960
2018-09-22T13:51:22.288Z,7476
2018-09-22T13:52:07.334Z,7404
2018-09-22T13:53:22.017Z,7404
2018-09-22T13:54:07.639Z,7184
2018-09-22T13:55:07.659Z,7244
2018-09-22T13:56:07.837Z,6912
2018-09-22T13:57:22.371Z,7084
2018-09-22T13:58:07.739Z,7064
2018-09-22T13:59:22.416Z,7328
2018-09-22T14:00:07.781Z,7564
2018-09-22T14:01:07.850Z,7532
2018-09-22T14:02:07.834Z,6844
2018-09-22T14:03:22.513Z,7720
2018-09-22T14:04:07.874Z,7476
2018-09-22T14:05:07.641Z,7496
2018-09-22T14:06:07.665Z,7116
2018-09-22T14:08:07.967Z,6680
2018-09-22T14:09:07.739Z,6504
2018-09-22T14:10:08.089Z,6152
2018-09-22T14:11:07.794Z,6140
2018-09-22T14:12:22.728Z,6072
2018-09-22T14:13:07.829Z,6076
2018-09-22T14:14:22.526Z,6400
2018-09-22T14:15:22.796Z,6548
2018-09-22T14:16:07.645Z,6592
2018-09-22T14:17:08.183Z,6588
2018-09-22T14:18:08.206Z,6752
2018-09-22T14:19:08.235Z,6724
2018-09-22T14:20:07.996Z,6408
2018-09-22T14:21:08.281Z,5964
2018-09-22T14:23:08.329Z,6124
2018-09-22T14:24:08.462Z,6168
2018-09-22T14:25:08.112Z,6152
2018-09-22T14:26:08.400Z,6008
2018-09-22T14:27:23.291Z,5788
2018-09-22T14:28:08.443Z,5676
2018-09-22T14:29:08.504Z,5536
2018-09-22T14:30:07.985Z,5388
2018-09-22T14:31:22.920Z,5356
2018-09-22T14:32:22.940Z,5432
2018-09-22T14:34:08.589Z,5320
2018-09-22T14:35:23.268Z,5256
2018-09-22T14:37:08.657Z,5272
2018-09-22T14:38:08.681Z,5304
2018-09-22T14:39:23.365Z,5160
2018-09-22T14:40:08.729Z,5052
2018-09-22T14:41:08.490Z,4820
2018-09-22T14:42:08.771Z,4612
2018-09-22T14:43:08.796Z,4560
2018-09-22T14:44:08.819Z,4668
2018-09-22T14:45:08.583Z,4672